Time;durP1;ratioP1;P1;durP2;ratioP2;P2;SDS_P1;SDS_P2;PMS_P1;PMS_P2;Temp;Humidity;BMP_temperature;BMP_pressure;BME280_temperature;BME280_humidity;BME280_pressure;Samples;Min_cycle;Max_cycle;Signal;HPM_P1;HPM_P2
2023/11/09 00:01:44;;;;;;;3.92;3.30;;;11.00;99.90;;;;;;4859764;29;20234;-66
2023/11/09 00:04:10;;;;;;;17.10;3.88;;;10.90;99.90;;;;;;4859708;29;20182;-66
2023/11/09 00:06:36;;;;;;;3.78;3.47;;;11.00;99.90;;;;;;4860892;29;20218;-62
2023/11/09 00:09:03;;;;;;;5.22;3.25;;;11.00;99.90;;;;;;4860671;29;20297;-66
2023/11/09 00:11:30;;;;;;;3.58;3.22;;;11.00;99.90;;;;;;4861562;29;20198;-68
2023/11/09 00:13:56;;;;;;;3.80;3.40;;;11.00;99.90;;;;;;4861295;29;20712;-64
2023/11/09 00:16:23;;;;;;;4.30;3.30;;;11.00;99.90;;;;;;4860891;29;20193;-62
2023/11/09 00:18:49;;;;;;;3.65;3.22;;;11.00;99.90;;;;;;4875086;29;20574;-65
2023/11/09 00:21:15;;;;;;;3.70;3.30;;;11.00;99.90;;;;;;4861108;29;20269;-63
2023/11/09 00:23:41;;;;;;;5.43;3.40;;;11.00;99.90;;;;;;4861560;29;20269;-62
2023/11/09 00:26:08;;;;;;;3.40;3.10;;;11.00;99.90;;;;;;4860471;29;20651;-68
2023/11/09 00:28:35;;;;;;;3.40;3.10;;;11.00;99.90;;;;;;4859687;29;20198;-63
2023/11/09 00:31:01;;;;;;;3.75;3.10;;;11.00;99.90;;;;;;4844251;29;20185;-62
2023/11/09 00:33:27;;;;;;;3.47;3.17;;;11.00;99.90;;;;;;4860348;29;20190;-63
2023/11/09 00:35:54;;;;;;;3.55;2.90;;;11.00;99.90;;;;;;4860273;29;20259;-62
2023/11/09 00:38:19;;;;;;;3.45;3.15;;;11.00;99.90;;;;;;4860741;29;20194;-64
2023/11/09 00:40:46;;;;;;;3.00;2.70;;;11.10;99.90;;;;;;4859075;29;20209;-67
2023/11/09 00:43:12;;;;;;;3.00;2.70;;;11.10;99.90;;;;;;4859392;29;20270;-64
2023/11/09 00:45:38;;;;;;;3.88;2.80;;;11.10;99.90;;;;;;4874358;29;20267;-63
2023/11/09 00:48:04;;;;;;;2.70;2.50;;;11.10;99.90;;;;;;4859549;29;20206;-63
2023/11/09 00:50:31;;;;;;;3.17;2.67;;;11.10;99.90;;;;;;4860877;29;20194;-65
2023/11/09 00:52:57;;;;;;;2.75;2.55;;;11.10;99.90;;;;;;4860709;29;20273;-63
2023/11/09 00:55:23;;;;;;;3.58;2.88;;;11.10;99.90;;;;;;4859017;29;20293;-69
2023/11/09 00:57:49;;;;;;;2.90;2.70;;;11.20;99.90;;;;;;4859250;29;20205;-64
2023/11/09 01:00:16;;;;;;;2.63;2.42;;;11.20;99.90;;;;;;4860396;29;20186;-61
2023/11/09 01:02:44;;;;;;;3.35;2.65;;;11.20;99.90;;;;;;4860388;29;20289;-62
2023/11/09 01:05:10;;;;;;;3.60;2.65;;;11.20;99.90;;;;;;4860026;29;20307;-62
2023/11/09 01:07:37;;;;;;;3.67;2.83;;;11.20;99.90;;;;;;4860161;29;20238;-63
2023/11/09 01:10:06;;;;;;;4.55;2.90;;;11.20;99.90;;;;;;4858852;29;20204;-62
2023/11/09 01:12:32;;;;;;;2.90;2.60;;;11.20;99.90;;;;;;4860384;29;20190;-65
2023/11/09 01:14:58;;;;;;;4.55;2.80;;;11.20;99.90;;;;;;4860141;29;20690;-63
2023/11/09 01:17:27;;;;;;;4.10;2.47;;;11.20;99.90;;;;;;4858774;29;20285;-61
2023/11/09 01:19:53;;;;;;;4.50;2.50;;;11.20;99.90;;;;;;4859169;29;20201;-66
2023/11/09 01:22:19;;;;;;;3.00;2.60;;;11.20;99.90;;;;;;4874531;29;20233;-66
2023/11/09 01:24:46;;;;;;;3.65;2.72;;;11.20;99.90;;;;;;4860012;29;20190;-63
2023/11/09 01:27:11;;;;;;;3.03;2.63;;;11.20;99.90;;;;;;4874143;29;20221;-64
2023/11/09 01:29:38;;;;;;;2.90;2.58;;;11.20;99.90;;;;;;4859866;29;20265;-64
2023/11/09 01:32:04;;;;;;;4.20;2.30;;;11.20;99.90;;;;;;4828700;29;20619;-63
2023/11/09 01:34:31;;;;;;;2.75;2.47;;;11.20;99.90;;;;;;4874263;29;20639;-67
2023/11/09 01:36:57;;;;;;;4.80;2.40;;;11.20;99.90;;;;;;4860149;29;20186;-63
2023/11/09 01:39:23;;;;;;;2.75;2.10;;;11.20;99.90;;;;;;4859769;29;20192;-68
2023/11/09 01:41:49;;;;;;;2.88;2.25;;;11.20;99.90;;;;;;4843329;29;20622;-63
2023/11/09 01:44:16;;;;;;;3.53;2.30;;;11.30;99.90;;;;;;4873931;29;20205;-62
2023/11/09 01:46:43;;;;;;;2.83;2.20;;;11.20;99.90;;;;;;4858618;29;20218;-63
2023/11/09 01:49:13;;;;;;;3.63;2.20;;;11.20;99.90;;;;;;4860109;29;20166;-66
2023/11/09 01:51:43;;;;;;;3.72;2.20;;;11.20;99.90;;;;;;4843565;29;20178;-63
2023/11/09 01:54:10;;;;;;;2.30;2.10;;;11.20;99.90;;;;;;4858297;29;20201;-64
2023/11/09 01:56:36;;;;;;;3.15;2.35;;;11.20;99.90;;;;;;4859522;29;20194;-67
2023/11/09 01:59:04;;;;;;;2.17;2.05;;;11.20;99.90;;;;;;4843546;29;20190;-64
2023/11/09 02:01:32;;;;;;;4.65;2.38;;;11.20;99.90;;;;;;4843219;29;20578;-63
2023/11/09 02:03:59;;;;;;;2.15;1.95;;;11.20;99.90;;;;;;4858751;29;20186;-63
2023/11/09 02:06:25;;;;;;;2.50;2.15;;;11.20;99.90;;;;;;4860192;29;20663;-63
2023/11/09 02:08:51;;;;;;;2.47;2.13;;;11.20;99.90;;;;;;4843150;29;20276;-66
2023/11/09 02:11:17;;;;;;;3.45;2.13;;;11.20;99.90;;;;;;4858661;29;20218;-66
2023/11/09 02:13:43;;;;;;;2.55;2.35;;;11.20;99.90;;;;;;4863236;29;20193;-64
2023/11/09 02:16:09;;;;;;;2.78;2.10;;;11.20;99.90;;;;;;4846641;29;20322;-70
2023/11/09 02:18:35;;;;;;;2.45;2.20;;;11.20;99.90;;;;;;4861976;29;20245;-66
2023/11/09 02:21:01;;;;;;;2.70;2.40;;;11.20;99.90;;;;;;4861763;29;20185;-67
2023/11/09 02:23:33;;;;;;;2.67;2.30;;;11.20;99.90;;;;;;4863327;29;20190;-66
2023/11/09 02:26:01;;;;;;;4.07;2.33;;;11.20;99.90;;;;;;4863108;29;20198;-63
2023/11/09 02:28:27;;;;;;;3.28;2.30;;;11.20;99.90;;;;;;4862001;29;20182;-64
2023/11/09 02:30:53;;;;;;;2.60;2.30;;;11.20;99.90;;;;;;4863034;29;20190;-64
2023/11/09 02:33:19;;;;;;;2.15;1.95;;;11.20;99.90;;;;;;4846419;29;20235;-64
2023/11/09 02:35:45;;;;;;;2.40;2.20;;;11.20;99.90;;;;;;4862068;29;20547;-64
2023/11/09 02:38:11;;;;;;;2.38;2.05;;;11.20;99.90;;;;;;4846588;29;20269;-69
2023/11/09 02:40:37;;;;;;;2.30;2.10;;;11.20;99.90;;;;;;4862952;29;20193;-69
2023/11/09 02:43:03;;;;;;;2.63;2.10;;;11.20;99.90;;;;;;4861360;29;20639;-67
2023/11/09 02:45:29;;;;;;;2.53;2.20;;;11.20;99.90;;;;;;4846187;29;20218;-63
2023/11/09 02:47:55;;;;;;;2.20;2.00;;;11.20;99.90;;;;;;4862746;29;20193;-65
2023/11/09 02:50:21;;;;;;;2.45;2.20;;;11.20;99.90;;;;;;4863184;29;20281;-67
2023/11/09 02:52:48;;;;;;;1.95;1.75;;;11.20;99.90;;;;;;4877000;29;20197;-62
2023/11/09 02:55:18;;;;;;;4.03;2.10;;;11.30;99.90;;;;;;4862718;29;20230;-67
2023/11/09 02:57:45;;;;;;;2.08;1.67;;;11.20;99.90;;;;;;4861552;29;20182;-62
2023/11/09 03:00:11;;;;;;;2.58;1.85;;;11.20;99.90;;;;;;4862376;29;20193;-62
2023/11/09 03:02:37;;;;;;;2.00;1.73;;;11.20;99.90;;;;;;4877276;29;20190;-68
2023/11/09 03:05:03;;;;;;;2.58;1.98;;;11.20;99.90;;;;;;4862702;29;20193;-63
2023/11/09 03:07:29;;;;;;;2.78;1.90;;;11.20;99.90;;;;;;4861392;29;20233;-62
2023/11/09 03:09:55;;;;;;;1.70;1.58;;;11.20;99.90;;;;;;4862394;29;20671;-66
2023/11/09 03:12:21;;;;;;;1.70;1.60;;;11.20;99.90;;;;;;4876378;29;20194;-65
2023/11/09 03:14:47;;;;;;;1.73;1.48;;;11.20;99.90;;;;;;4876406;29;20182;-64
2023/11/09 03:17:13;;;;;;;3.67;1.80;;;11.20;99.90;;;;;;4876563;29;20178;-62
2023/11/09 03:19:39;;;;;;;2.22;1.70;;;11.20;99.90;;;;;;4862700;29;20208;-64
2023/11/09 03:22:08;;;;;;;1.95;1.80;;;11.20;99.90;;;;;;4862921;29;20186;-62
2023/11/09 03:24:34;;;;;;;1.90;1.70;;;11.20;99.90;;;;;;4860175;29;20185;-63
2023/11/09 03:27:02;;;;;;;1.83;1.73;;;11.20;99.90;;;;;;4860835;29;20218;-64
2023/11/09 03:29:28;;;;;;;2.00;1.80;;;11.20;99.90;;;;;;4860812;29;20221;-65
2023/11/09 03:31:54;;;;;;;2.13;1.80;;;11.20;99.90;;;;;;4860570;29;20661;-67
2023/11/09 03:34:20;;;;;;;1.80;1.67;;;11.30;99.90;;;;;;4860407;29;20302;-66
2023/11/09 03:36:46;;;;;;;2.20;2.00;;;11.20;99.90;;;;;;4861788;29;20210;-65
2023/11/09 03:39:13;;;;;;;2.35;2.13;;;11.30;99.90;;;;;;4861556;29;20666;-63
2023/11/09 03:41:39;;;;;;;3.13;2.08;;;11.30;99.90;;;;;;4861862;29;20696;-64
2023/11/09 03:44:05;;;;;;;4.22;2.10;;;11.30;99.90;;;;;;4861411;29;20303;-62
2023/11/09 03:46:31;;;;;;;2.33;2.13;;;11.20;99.90;;;;;;4875794;29;20232;-62
2023/11/09 03:48:58;;;;;;;2.83;2.20;;;11.30;99.90;;;;;;4860216;29;20277;-66
2023/11/09 03:51:27;;;;;;;3.65;2.15;;;11.30;99.90;;;;;;4860306;29;20280;-63
2023/11/09 03:53:53;;;;;;;2.40;2.20;;;11.30;99.90;;;;;;4861514;29;20221;-65
2023/11/09 03:56:21;;;;;;;2.15;1.90;;;11.30;99.90;;;;;;4861467;29;20186;-63
2023/11/09 03:58:47;;;;;;;2.40;2.10;;;11.30;99.90;;;;;;4861018;29;20213;-62
2023/11/09 04:01:13;;;;;;;2.20;2.00;;;11.30;99.90;;;;;;4861480;29;20182;-67
2023/11/09 04:03:39;;;;;;;2.00;1.70;;;11.30;99.90;;;;;;4861727;29;20186;-63
2023/11/09 04:06:07;;;;;;;2.63;1.90;;;11.30;99.90;;;;;;4861473;29;20305;-62
2023/11/09 04:08:34;;;;;;;2.65;2.10;;;11.30;99.90;;;;;;4860185;29;20706;-61
2023/11/09 04:11:00;;;;;;;2.38;2.17;;;11.30;99.90;;;;;;4859914;29;20274;-63
2023/11/09 04:13:26;;;;;;;1.95;1.85;;;11.30;99.90;;;;;;4860183;29;20608;-63
2023/11/09 04:15:52;;;;;;;2.13;1.92;;;11.30;99.90;;;;;;4861058;29;20241;-62
2023/11/09 04:18:18;;;;;;;4.80;2.10;;;11.30;99.90;;;;;;4860095;29;20190;-68
2023/11/09 04:20:43;;;;;;;2.38;2.10;;;11.30;99.90;;;;;;4861320;29;20182;-64
2023/11/09 04:23:09;;;;;;;2.00;1.90;;;11.30;99.90;;;;;;4860918;29;20193;-61
2023/11/09 04:25:35;;;;;;;2.88;2.20;;;11.30;99.90;;;;;;4859882;29;20755;-62
2023/11/09 04:28:01;;;;;;;2.13;1.73;;;11.30;99.90;;;;;;4875579;29;20194;-61
2023/11/09 04:30:30;;;;;;;2.08;1.88;;;11.30;99.90;;;;;;4860757;29;20190;-68
2023/11/09 04:32:57;;;;;;;3.25;2.10;;;11.30;99.90;;;;;;4859541;29;20505;-62
2023/11/09 04:35:27;;;;;;;2.17;1.90;;;11.30;99.90;;;;;;4859154;29;20200;-62
2023/11/09 04:37:56;;;;;;;3.33;1.92;;;11.30;99.90;;;;;;4860396;29;20651;-64
2023/11/09 04:40:25;;;;;;;2.80;1.90;;;11.30;99.90;;;;;;4860666;29;20192;-64
2023/11/09 04:42:51;;;;;;;2.20;2.00;;;11.30;99.90;;;;;;4859498;29;20293;-62
2023/11/09 04:45:17;;;;;;;2.97;2.40;;;11.30;99.90;;;;;;4860591;29;20221;-62
2023/11/09 04:47:45;;;;;;;3.95;2.65;;;11.30;99.90;;;;;;4859965;29;20193;-63
2023/11/09 04:50:15;;;;;;;2.60;2.40;;;11.30;99.90;;;;;;4859869;29;20269;-62
2023/11/09 04:52:51;;;;;;;2.55;2.30;;;11.30;99.90;;;;;;4859539;29;20179;-67
2023/11/09 04:55:31;;;;;;;2.88;2.50;;;11.30;99.90;;;;;;4859503;29;20616;-68
2023/11/09 05:08:55;;;;;;;4.18;3.40;;;11.30;99.90;;;;;;4860416;29;20233;-62
2023/11/09 05:11:21;;;;;;;4.00;3.60;;;11.30;99.90;;;;;;4860144;29;20673;-62
2023/11/09 05:13:46;;;;;;;3.95;3.55;;;11.30;99.90;;;;;;4859017;29;20186;-64
2023/11/09 05:16:12;;;;;;;4.00;3.60;;;11.30;99.90;;;;;;4860214;29;20237;-65
2023/11/09 05:18:38;;;;;;;4.05;3.65;;;11.30;99.90;;;;;;4859928;29;20268;-62
2023/11/09 05:21:05;;;;;;;3.75;3.22;;;11.30;99.90;;;;;;4860262;29;20269;-66
2023/11/09 05:23:31;;;;;;;5.25;3.25;;;11.30;99.90;;;;;;4859797;29;20182;-63
2023/11/09 05:25:57;;;;;;;4.05;2.75;;;11.20;99.90;;;;;;4860207;29;20225;-63
2023/11/09 05:28:24;;;;;;;4.13;2.80;;;11.10;99.90;;;;;;4859813;29;20192;-66
2023/11/09 05:30:50;;;;;;;5.82;3.03;;;11.10;99.90;;;;;;4859731;29;20272;-66
2023/11/09 05:33:19;;;;;;;7.45;3.15;;;11.10;99.90;;;;;;4858917;29;20245;-61
2023/11/09 05:35:45;;;;;;;7.10;3.03;;;11.10;99.90;;;;;;4858820;29;20238;-69
2023/11/09 05:38:11;;;;;;;5.82;3.03;;;11.00;99.90;;;;;;4860235;29;20190;-62
2023/11/09 05:40:38;;;;;;;7.22;3.28;;;11.00;99.90;;;;;;4843546;29;20201;-66
2023/11/09 05:43:04;;;;;;;8.25;3.70;;;10.90;99.90;;;;;;4860183;29;20209;-62
2023/11/09 05:45:30;;;;;;;11.57;3.70;;;10.80;99.90;;;;;;4859780;29;20533;-62
2023/11/09 05:47:56;;;;;;;11.20;3.92;;;10.80;99.90;;;;;;4862328;29;20189;-68
2023/11/09 05:50:22;;;;;;;13.05;4.63;;;10.80;99.90;;;;;;4863984;29;20600;-68
2023/11/09 05:52:48;;;;;;;11.32;4.32;;;10.70;99.90;;;;;;4862454;29;20186;-62
2023/11/09 05:55:14;;;;;;;15.90;5.40;;;10.70;99.90;;;;;;4863309;29;20198;-68
2023/11/09 05:57:40;;;;;;;19.15;5.75;;;10.70;99.90;;;;;;4863203;29;20190;-63
2023/11/09 06:00:08;;;;;;;17.60;6.25;;;10.70;99.90;;;;;;4863111;29;20647;-63
2023/11/09 06:02:34;;;;;;;16.92;5.47;;;10.60;99.90;;;;;;4863095;29;20255;-64
2023/11/09 06:05:00;;;;;;;13.63;5.35;;;10.70;99.90;;;;;;4863248;29;20643;-62
2023/11/09 06:07:27;;;;;;;18.55;5.70;;;10.60;99.90;;;;;;4862749;29;20265;-63
2023/11/09 06:09:53;;;;;;;17.35;5.57;;;10.60;99.90;;;;;;4863591;29;20213;-64
2023/11/09 06:12:20;;;;;;;19.88;5.85;;;10.60;99.90;;;;;;4861819;29;20210;-62
2023/11/09 06:14:46;;;;;;;15.90;5.40;;;10.60;99.90;;;;;;4863145;29;20667;-62
2023/11/09 06:17:12;;;;;;;19.67;5.50;;;10.50;99.90;;;;;;4862968;29;20190;-65
2023/11/09 06:19:38;;;;;;;18.77;4.97;;;10.50;99.90;;;;;;4863303;29;20189;-63
2023/11/09 06:22:06;;;;;;;18.55;5.07;;;10.50;99.90;;;;;;4862682;29;20631;-68
2023/11/09 06:24:32;;;;;;;22.35;5.40;;;10.50;99.90;;;;;;4862993;29;20187;-62
2023/11/09 06:27:00;;;;;;;20.13;4.75;;;10.50;99.90;;;;;;4862377;29;20696;-64
2023/11/09 06:29:28;;;;;;;14.10;4.68;;;10.50;99.90;;;;;;4862680;29;20189;-64
2023/11/09 06:31:53;;;;;;;19.58;4.90;;;10.40;99.90;;;;;;4862977;29;20200;-63
2023/11/09 06:34:19;;;;;;;17.08;4.15;;;10.40;99.90;;;;;;4877070;29;20198;-61
2023/11/09 06:36:46;;;;;;;21.30;4.88;;;10.40;99.90;;;;;;4861489;29;20288;-62
2023/11/09 06:39:16;;;;;;;13.85;4.32;;;10.40;99.90;;;;;;4862660;29;20202;-62
2023/11/09 06:41:43;;;;;;;19.90;4.63;;;10.40;99.90;;;;;;4862749;29;20600;-65
2023/11/09 06:44:12;;;;;;;16.98;5.35;;;10.40;99.90;;;;;;4877094;29;20201;-65
2023/11/09 06:46:38;;;;;;;18.75;5.78;;;10.40;99.90;;;;;;4861422;29;20213;-63
2023/11/09 06:49:08;;;;;;;23.60;6.55;;;10.40;99.90;;;;;;4862385;29;20214;-63
2023/11/09 06:51:35;;;;;;;24.23;7.35;;;10.40;99.90;;;;;;4862517;29;20587;-65
2023/11/09 06:54:02;;;;;;;26.25;7.47;;;10.40;99.90;;;;;;4862649;29;20282;-64
2023/11/09 06:56:29;;;;;;;23.63;6.70;;;10.40;99.90;;;;;;4861160;29;20268;-61
2023/11/09 06:58:55;;;;;;;25.27;6.57;;;10.40;99.90;;;;;;4862236;29;20282;-63
2023/11/09 07:01:21;;;;;;;27.30;6.05;;;10.40;99.90;;;;;;4845655;29;20210;-64
2023/11/09 07:03:50;;;;;;;22.63;4.90;;;10.40;99.90;;;;;;4876243;29;20201;-64
2023/11/09 07:06:16;;;;;;;21.63;5.75;;;10.40;99.90;;;;;;4861017;29;20269;-62
2023/11/09 07:08:43;;;;;;;19.17;5.30;;;10.40;99.90;;;;;;4862231;29;20329;-65
2023/11/09 07:11:10;;;;;;;24.10;5.68;;;10.40;99.90;;;;;;4862426;29;20217;-68
2023/11/09 07:13:37;;;;;;;17.30;4.75;;;10.40;99.90;;;;;;4861973;29;20250;-65
2023/11/09 07:16:05;;;;;;;23.02;5.38;;;10.40;99.90;;;;;;4860969;29;20214;-61
2023/11/09 07:18:31;;;;;;;20.00;4.50;;;10.40;99.90;;;;;;4861983;29;20197;-68
2023/11/09 07:21:08;;;;;;;21.70;4.97;;;10.40;99.90;;;;;;4875942;29;20185;-63
2023/11/09 07:23:35;;;;;;;23.45;4.65;;;10.40;99.90;;;;;;4861381;29;20181;-66
2023/11/09 07:26:01;;;;;;;26.35;4.93;;;10.30;99.90;;;;;;4861622;29;20218;-64
2023/11/09 07:28:29;;;;;;;28.52;4.93;;;10.30;99.90;;;;;;4861632;29;20238;-65
2023/11/09 07:30:55;;;;;;;21.65;4.75;;;10.30;99.90;;;;;;4875775;29;20661;-66
2023/11/09 07:33:21;;;;;;;23.75;4.85;;;10.30;99.90;;;;;;4860650;29;20248;-64
2023/11/09 07:35:47;;;;;;;23.90;4.38;;;10.30;99.90;;;;;;4861727;29;20241;-62
2023/11/09 07:38:13;;;;;;;23.52;4.35;;;10.40;99.90;;;;;;4861630;29;20196;-67
2023/11/09 07:40:41;;;;;;;18.80;4.88;;;10.30;99.90;;;;;;4875546;29;20182;-63
2023/11/09 07:43:10;;;;;;;25.30;5.05;;;10.30;99.90;;;;;;4861604;29;20193;-62
2023/11/09 07:45:37;;;;;;;27.02;5.30;;;10.30;99.90;;;;;;4861515;29;20222;-61
2023/11/09 07:48:04;;;;;;;30.55;4.90;;;10.30;99.90;;;;;;4860655;29;20198;-62
2023/11/09 07:50:33;;;;;;;19.85;4.65;;;10.40;99.90;;;;;;4859945;29;20197;-67
2023/11/09 07:53:00;;;;;;;19.98;4.75;;;10.40;99.90;;;;;;4860301;29;20238;-65
2023/11/09 07:55:29;;;;;;;23.83;4.95;;;10.40;99.90;;;;;;4862007;29;20615;-63
2023/11/09 07:58:03;;;;;;;24.98;5.25;;;10.40;99.90;;;;;;4829905;29;20213;-63
2023/11/09 08:00:29;;;;;;;24.92;4.60;;;10.40;99.90;;;;;;4861323;29;20607;-63
2023/11/09 08:02:58;;;;;;;23.83;4.90;;;10.50;99.90;;;;;;4861192;29;20182;-67
2023/11/09 08:05:25;;;;;;;23.20;4.95;;;10.50;99.90;;;;;;4860190;29;20196;-63
2023/11/09 08:07:54;;;;;;;24.50;5.20;;;10.50;99.90;;;;;;4859847;29;20279;-62
2023/11/09 08:10:24;;;;;;;25.55;5.25;;;10.50;99.90;;;;;;4844659;29;20182;-62
2023/11/09 08:12:52;;;;;;;22.08;5.10;;;10.60;99.90;;;;;;4844541;29;20209;-63
2023/11/09 08:15:18;;;;;;;17.30;5.15;;;10.60;99.90;;;;;;4860953;29;20322;-61
2023/11/09 08:17:44;;;;;;;24.70;5.22;;;10.60;99.90;;;;;;4860675;29;20280;-64
2023/11/09 08:20:14;;;;;;;26.95;5.30;;;10.60;99.90;;;;;;4859363;29;20186;-64
2023/11/09 08:22:45;;;;;;;19.90;5.18;;;10.60;99.90;;;;;;4860716;29;20190;-61
2023/11/09 08:25:15;;;;;;;15.57;4.78;;;10.60;99.90;;;;;;4861094;29;20178;-61
2023/11/09 08:27:41;;;;;;;19.50;4.70;;;10.60;99.90;;;;;;4844329;29;20228;-67
2023/11/09 08:30:11;;;;;;;24.30;4.90;;;10.60;99.90;;;;;;4860916;29;20186;-63
2023/11/09 08:32:38;;;;;;;25.00;4.80;;;10.50;99.90;;;;;;4875154;29;20182;-63
2023/11/09 08:35:10;;;;;;;23.88;4.70;;;10.60;99.90;;;;;;4860724;29;20238;-68
2023/11/09 08:37:40;;;;;;;17.65;4.28;;;10.60;99.90;;;;;;4859943;29;20290;-61
2023/11/09 08:40:16;;;;;;;22.42;4.30;;;10.60;99.90;;;;;;4860697;29;20269;-60
2023/11/09 08:42:48;;;;;;;19.48;5.15;;;10.60;99.90;;;;;;4860707;29;20231;-64
2023/11/09 08:45:21;;;;;;;17.67;4.75;;;10.60;99.90;;;;;;4858779;29;20206;-69
2023/11/09 08:47:49;;;;;;;20.75;5.60;;;10.50;99.90;;;;;;4861003;29;20213;-67
2023/11/09 08:50:16;;;;;;;25.85;6.55;;;10.50;99.90;;;;;;4860452;29;20186;-63
2023/11/09 08:52:43;;;;;;;25.25;5.05;;;10.60;99.90;;;;;;4860384;29;20190;-60
2023/11/09 08:55:09;;;;;;;22.45;5.75;;;10.60;99.90;;;;;;4859303;29;20186;-62
2023/11/09 08:57:39;;;;;;;15.82;4.93;;;10.60;99.90;;;;;;4860059;29;20186;-61
2023/11/09 09:00:11;;;;;;;23.00;5.93;;;10.60;99.90;;;;;;4859028;29;20238;-67
2023/11/09 09:02:45;;;;;;;19.08;5.25;;;10.60;99.90;;;;;;4860335;29;20603;-65
2023/11/09 09:05:15;;;;;;;19.88;5.32;;;10.70;99.90;;;;;;4860213;29;20177;-66
2023/11/09 09:07:42;;;;;;;21.27;5.43;;;10.80;99.90;;;;;;4859860;29;20244;-60
2023/11/09 09:10:13;;;;;;;18.25;4.88;;;10.80;99.90;;;;;;4859509;29;20333;-62
2023/11/09 09:12:39;;;;;;;13.02;4.60;;;10.80;99.90;;;;;;4860470;29;20185;-61
2023/11/09 09:15:12;;;;;;;19.73;4.72;;;10.90;99.90;;;;;;4874277;29;20258;-66
2023/11/09 09:17:49;;;;;;;24.17;5.28;;;10.90;99.90;;;;;;4874262;29;20210;-66
2023/11/09 09:20:19;;;;;;;16.92;4.75;;;11.00;99.90;;;;;;4860128;29;20181;-67
2023/11/09 09:22:47;;;;;;;17.30;5.18;;;11.10;99.90;;;;;;4860148;29;20174;-63
2023/11/09 09:25:14;;;;;;;17.20;5.03;;;11.20;99.90;;;;;;4858938;29;20705;-68
2023/11/09 09:27:46;;;;;;;21.02;5.35;;;11.20;99.90;;;;;;4859841;29;20304;-61
2023/11/09 09:30:18;;;;;;;14.35;5.47;;;11.30;99.90;;;;;;4874297;29;20601;-67
2023/11/09 09:32:46;;;;;;;20.35;5.82;;;11.30;99.90;;;;;;4874532;29;20218;-62
2023/11/09 09:35:13;;;;;;;20.38;5.13;;;11.30;99.90;;;;;;4843603;29;20198;-69
2023/11/09 09:37:40;;;;;;;16.50;4.93;;;11.30;99.90;;;;;;4860293;29;20208;-61
2023/11/09 09:40:19;;;;;;;17.52;4.38;;;11.30;99.90;;;;;;4858684;29;20186;-62
2023/11/09 09:42:56;;;;;;;16.88;4.40;;;11.30;99.90;;;;;;4860241;29;20238;-65
2023/11/09 09:45:32;;;;;;;19.17;4.35;;;11.30;99.90;;;;;;4858311;29;20178;-60
2023/11/09 09:48:01;;;;;;;18.80;4.53;;;11.30;99.90;;;;;;4859851;29;20178;-61
2023/11/09 09:50:37;;;;;;;17.30;4.50;;;11.30;99.90;;;;;;4858535;29;20182;-62
2023/11/09 09:53:08;;;;;;;20.90;4.28;;;11.40;99.90;;;;;;4858724;29;20189;-63
2023/11/09 09:55:36;;;;;;;17.85;4.20;;;11.50;99.90;;;;;;4859784;29;20166;-62
2023/11/09 09:58:05;;;;;;;16.85;4.68;;;11.50;99.90;;;;;;4859399;29;20639;-62
2023/11/09 10:00:32;;;;;;;25.38;5.00;;;11.50;99.90;;;;;;4859696;29;20193;-61
2023/11/09 10:03:01;;;;;;;19.17;4.47;;;11.60;99.90;;;;;;4858410;29;20262;-67
2023/11/09 10:05:29;;;;;;;18.50;4.97;;;11.60;99.90;;;;;;4860174;29;20229;-61
2023/11/09 10:07:59;;;;;;;23.52;6.38;;;11.70;99.90;;;;;;4859568;29;20759;-61
2023/11/09 10:10:26;;;;;;;21.50;4.70;;;11.70;99.90;;;;;;4859637;29;20182;-67
2023/11/09 10:12:55;;;;;;;15.98;4.85;;;11.70;99.90;;;;;;4859331;29;20232;-66
2023/11/09 10:15:24;;;;;;;20.05;5.65;;;11.70;99.90;;;;;;4858358;29;20208;-67
2023/11/09 10:17:54;;;;;;;19.20;5.53;;;11.70;99.90;;;;;;4858276;29;20282;-67
2023/11/09 10:20:20;;;;;;;16.15;5.38;;;11.70;99.90;;;;;;4859330;29;20193;-63
2023/11/09 10:22:50;;;;;;;22.88;5.70;;;11.80;99.90;;;;;;4873743;29;20197;-66
2023/11/09 10:25:17;;;;;;;21.45;5.70;;;11.80;99.90;;;;;;4859173;29;20207;-67
2023/11/09 10:27:48;;;;;;;20.48;5.03;;;11.80;99.90;;;;;;4858086;29;20691;-62
2023/11/09 10:30:16;;;;;;;23.38;5.70;;;11.90;99.90;;;;;;4873407;29;20174;-61
2023/11/09 10:32:44;;;;;;;13.52;5.00;;;11.90;99.90;;;;;;4859875;29;20186;-60
2023/11/09 10:35:13;;;;;;;13.63;5.22;;;11.90;99.90;;;;;;4863028;29;20223;-61
2023/11/09 10:37:43;;;;;;;20.48;7.07;;;12.00;99.90;;;;;;4861381;29;20189;-59
2023/11/09 10:40:14;;;;;;;22.95;6.65;;;12.00;99.90;;;;;;4877314;29;20185;-66
2023/11/09 10:42:41;;;;;;;18.98;6.03;;;12.00;99.90;;;;;;4863042;29;20182;-63
2023/11/09 10:45:10;;;;;;;25.75;5.78;;;12.00;99.90;;;;;;4862429;29;20327;-60
2023/11/09 10:47:44;;;;;;;18.95;5.95;;;11.90;99.90;;;;;;4861921;29;20221;-66
2023/11/09 10:50:14;;;;;;;21.45;6.13;;;11.80;99.90;;;;;;4861418;29;20239;-67
2023/11/09 10:52:43;;;;;;;19.42;6.60;;;11.80;99.90;;;;;;4862548;29;20202;-62
2023/11/09 10:55:11;;;;;;;17.83;6.50;;;11.80;99.90;;;;;;4861270;29;20190;-62
2023/11/09 10:57:40;;;;;;;19.55;6.30;;;11.70;99.90;;;;;;4861068;29;20186;-62
2023/11/09 11:00:10;;;;;;;21.65;6.53;;;11.70;99.90;;;;;;4862054;29;20695;-63
2023/11/09 11:02:47;;;;;;;19.77;6.20;;;11.70;99.90;;;;;;4862293;29;20238;-62
2023/11/09 11:05:14;;;;;;;22.73;7.13;;;11.70;99.90;;;;;;4862085;29;20531;-64
2023/11/09 11:07:43;;;;;;;18.30;6.43;;;11.70;99.90;;;;;;4844761;29;20254;-62
2023/11/09 11:10:16;;;;;;;17.98;6.78;;;11.70;99.90;;;;;;4862429;29;20630;-61
2023/11/09 11:12:44;;;;;;;23.23;6.70;;;11.70;99.90;;;;;;4861738;29;20176;-62
2023/11/09 11:15:12;;;;;;;20.15;6.43;;;11.70;99.90;;;;;;4860881;29;20246;-61
2023/11/09 11:18:00;;;;;;;21.38;5.72;;;11.70;99.90;;;;;;4860267;29;20326;-65
2023/11/09 11:20:51;;;;;;;17.33;5.50;;;11.80;99.90;;;;;;4861972;29;20175;-66
2023/11/09 11:23:17;;;;;;;18.23;5.32;;;11.80;99.90;;;;;;4861657;29;20177;-62
2023/11/09 11:25:59;;;;;;;28.42;5.72;;;11.90;99.90;;;;;;4861662;29;20559;-67
2023/11/09 11:28:27;;;;;;;17.45;4.53;;;11.90;99.90;;;;;;4860875;29;20256;-68
2023/11/09 11:31:01;;;;;;;20.35;4.93;;;11.90;99.90;;;;;;4859926;29;20194;-68
2023/11/09 11:33:27;;;;;;;23.40;5.53;;;11.90;99.90;;;;;;4861361;29;20180;-61
2023/11/09 11:35:58;;;;;;;22.25;6.15;;;12.00;99.90;;;;;;4845355;29;20231;-63
2023/11/09 11:38:29;;;;;;;21.63;4.80;;;12.00;99.90;;;;;;4861521;29;20235;-62
2023/11/09 11:41:02;;;;;;;18.33;4.50;;;12.00;99.90;;;;;;4860205;29;20616;-61
2023/11/09 11:43:39;;;;;;;18.35;4.60;;;12.00;99.90;;;;;;4860136;29;20186;-62
2023/11/09 11:46:11;;;;;;;19.90;4.05;;;12.00;99.90;;;;;;4860658;29;20274;-61
2023/11/09 11:48:47;;;;;;;18.92;4.25;;;12.00;99.90;;;;;;4860401;29;20220;-70
2023/11/09 11:51:15;;;;;;;18.33;3.95;;;12.00;99.90;;;;;;4861257;29;20178;-63
2023/11/09 11:53:43;;;;;;;22.88;6.13;;;12.10;99.90;;;;;;4860955;29;20234;-67
2023/11/09 11:56:11;;;;;;;16.90;4.07;;;12.10;99.90;;;;;;4860203;29;20196;-61
2023/11/09 11:58:42;;;;;;;19.25;4.47;;;12.10;99.90;;;;;;4860671;29;20190;-64
2023/11/09 12:01:19;;;;;;;19.08;4.53;;;12.10;99.90;;;;;;4860951;29;20231;-62
2023/11/09 12:03:53;;;;;;;19.38;4.03;;;12.10;99.90;;;;;;4861135;29;20181;-61
2023/11/09 12:06:25;;;;;;;13.35;3.40;;;12.10;99.90;;;;;;4861110;29;20197;-62
2023/11/09 12:08:53;;;;;;;17.48;3.33;;;12.10;99.90;;;;;;4859485;29;20285;-61
2023/11/09 12:11:26;;;;;;;17.42;2.97;;;12.10;99.90;;;;;;4875237;29;20193;-63
2023/11/09 12:13:58;;;;;;;20.67;3.75;;;12.10;99.90;;;;;;4860604;29;20174;-62
2023/11/09 12:16:25;;;;;;;20.55;3.63;;;12.10;99.90;;;;;;4860939;29;20615;-65
2023/11/09 12:18:52;;;;;;;19.77;3.80;;;12.10;99.90;;;;;;4860461;29;20233;-64
2023/11/09 12:21:22;;;;;;;21.48;4.40;;;12.20;99.90;;;;;;4860729;29;20186;-63
2023/11/09 12:23:54;;;;;;;21.20;3.17;;;12.20;99.90;;;;;;4875139;29;20230;-67
2023/11/09 12:26:20;;;;;;;20.38;4.10;;;12.20;99.90;;;;;;4860681;29;20217;-61
2023/11/09 12:28:50;;;;;;;21.48;3.58;;;12.30;99.90;;;;;;4860419;29;20200;-62
2023/11/09 12:31:16;;;;;;;17.92;3.55;;;12.30;99.90;;;;;;4860303;29;20628;-66
2023/11/09 12:34:00;;;;;;;15.40;2.88;;;12.40;99.90;;;;;;4860163;29;20196;-62
2023/11/09 12:36:26;;;;;;;13.75;3.10;;;12.30;99.90;;;;;;4860719;29;20186;-63
2023/11/09 12:38:53;;;;;;;18.38;3.83;;;12.30;99.90;;;;;;4860664;29;20269;-64
2023/11/09 12:41:30;;;;;;;19.63;3.72;;;12.30;99.90;;;;;;4860651;29;20189;-68
2023/11/09 12:43:56;;;;;;;21.00;3.38;;;12.30;99.90;;;;;;4860132;29;20174;-67
2023/11/09 12:46:23;;;;;;;20.38;3.92;;;12.30;99.90;;;;;;4859305;29;20233;-63
2023/11/09 12:48:49;;;;;;;16.33;3.75;;;12.40;99.90;;;;;;4859829;29;20205;-62
2023/11/09 12:51:22;;;;;;;19.10;3.40;;;12.40;99.90;;;;;;4859856;29;20232;-65
2023/11/09 12:53:57;;;;;;;17.63;3.53;;;12.40;99.90;;;;;;4859547;29;20174;-69
2023/11/09 12:56:23;;;;;;;18.77;4.00;;;12.40;99.90;;;;;;4859975;29;20199;-62